Terminal Aerodrome Forecast
Issued by NWS

Home | Current Version | Previous Version | Text Only | Print | Product List | Glossary On
Versions: 1 2 3 4 5 6 7 8 9 10 11 12 13 14 15 16 17 18 19 20 21 22 23 24 25 26 27 28 29 30 31 32 33 34 35 36 37 38 39 40
000
FTUS42 KRAH 171739
TAFRWI
TAF
KRWI 171739Z 1718/1818 10005KT P6SM VCSH SCT040 BKN060
      TEMPO 1719/1722 2SM TSRA BKN025CB
     FM180600 19004KT 3SM BR BKN012
      TEMPO 1808/1812 1SM BR BKN007
     FM181500 14006KT P6SM BKN035 BKN080=

USA.gov is the U.S. government's official web portal to all federal, state and local government web resources and services.